createdAt,value
2022-08-10T00:04:24.556Z,11.40
2022-08-10T00:09:26.661Z,11.40
2022-08-10T00:14:28.781Z,11.30
2022-08-10T00:20:02.623Z,11.10
2022-08-10T00:24:53.936Z,10.40
2022-08-10T00:29:56.411Z,8.60
2022-08-10T00:34:58.343Z,9.00
2022-08-10T00:40:00.572Z,9.80
2022-08-10T00:45:03.085Z,9.80
2022-08-10T00:50:07.544Z,10.70
2022-08-10T00:55:12.472Z,11.70
2022-08-10T01:00:15.172Z,12.30
2022-08-10T01:05:24.010Z,11.90
2022-08-10T01:10:49.274Z,12.20
2022-08-10T01:16:27.666Z,12.20
2022-08-10T01:21:57.246Z,12.60
2022-08-10T01:27:27.043Z,12.80
2022-08-10T01:32:38.637Z,12.10
2022-08-10T01:37:51.999Z,13.50
2022-08-10T01:42:59.837Z,14.90
2022-08-10T01:48:28.515Z,16.10
2022-08-10T01:53:40.179Z,15.30
2022-08-10T01:58:45.477Z,16.00
2022-08-10T02:04:05.166Z,16.30
2022-08-10T02:09:12.227Z,15.40
2022-08-10T02:14:15.259Z,15.00
2022-08-10T02:19:29.332Z,14.80
2022-08-10T02:24:41.031Z,14.20
2022-08-10T02:29:44.892Z,15.30
2022-08-10T02:34:52.030Z,15.00
2022-08-10T02:39:54.653Z,15.60
2022-08-10T02:45:29.727Z,13.80
2022-08-10T02:50:38.300Z,14.50
2022-08-10T02:55:46.345Z,14.70
2022-08-10T03:00:53.506Z,15.20
2022-08-10T03:06:10.812Z,14.60
2022-08-10T03:12:35.228Z,15.10
2022-08-10T03:16:43.355Z,13.40
2022-08-10T03:21:50.197Z,13.30
2022-08-10T03:26:54.266Z,11.80
2022-08-10T03:31:58.490Z,13.50
2022-08-10T03:37:00.747Z,12.50
2022-08-10T03:42:06.124Z,14.00
2022-08-10T03:47:16.178Z,14.70
2022-08-10T03:52:20.143Z,15.40
2022-08-10T03:57:22.555Z,14.20
2022-08-10T04:02:46.987Z,14.30
2022-08-10T04:07:50.146Z,13.10
2022-08-10T04:13:12.339Z,11.10
2022-08-10T04:18:20.803Z,9.70
2022-08-10T04:23:25.733Z,11.20
2022-08-10T04:28:28.668Z,11.80
2022-08-10T04:33:33.179Z,10.70
2022-08-10T04:38:37.257Z,9.20
2022-08-10T04:43:39.674Z,7.60
2022-08-10T04:48:59.677Z,7.60
2022-08-10T04:54:07.121Z,7.50
2022-08-10T04:59:12.248Z,6.50
2022-08-10T05:04:35.743Z,6.80
2022-08-10T05:10:04.510Z,7.40
2022-08-10T05:15:13.486Z,7.40
2022-08-10T05:20:17.664Z,7.50
2022-08-10T05:25:20.282Z,8.00
2022-08-10T05:30:23.261Z,7.10
2022-08-10T05:35:26.285Z,7.70
2022-08-10T05:40:28.777Z,6.60
2022-08-10T05:45:30.801Z,6.60
2022-08-10T05:50:34.797Z,8.80
2022-08-10T05:55:37.045Z,8.70
2022-08-10T06:00:57.729Z,7.20
2022-08-10T06:06:02.401Z,6.90
2022-08-10T06:12:27.530Z,7.50
2022-08-10T06:16:30.003Z,7.20
2022-08-10T06:21:41.216Z,10.10
2022-08-10T06:27:02.555Z,7.00
2022-08-10T06:32:06.930Z,8.30
2022-08-10T06:37:10.920Z,7.60
2022-08-10T06:42:34.206Z,7.10
2022-08-10T06:48:00.510Z,7.40
2022-08-10T06:53:03.867Z,6.90
2022-08-10T06:58:07.268Z,6.10
2022-08-10T07:03:18.379Z,7.00
2022-08-10T07:08:23.483Z,6.90
2022-08-10T07:14:16.287Z,6.30
2022-08-10T07:18:49.692Z,5.40
2022-08-10T07:23:59.567Z,5.70
2022-08-10T07:29:03.762Z,5.80
2022-08-10T07:34:07.378Z,5.10
2022-08-10T07:39:12.860Z,5.60
2022-08-10T07:44:16.451Z,5.30
2022-08-10T07:49:23.897Z,5.50
2022-08-10T07:54:29.369Z,5.30
2022-08-10T07:59:45.166Z,5.70
2022-08-10T08:04:48.677Z,5.20
2022-08-10T08:09:57.587Z,6.00
2022-08-10T08:16:14.550Z,5.70
2022-08-10T08:20:26.780Z,6.30
2022-08-10T08:25:35.512Z,4.20
2022-08-10T08:30:41.898Z,3.80
2022-08-10T08:35:49.234Z,3.90
2022-08-10T08:41:01.271Z,3.90
2022-08-10T08:46:34.824Z,3.60
2022-08-10T08:52:06.218Z,4.00
2022-08-10T08:57:22.952Z,3.60
2022-08-10T09:03:02.118Z,3.30
2022-08-10T09:08:27.406Z,3.00
2022-08-10T09:13:41.724Z,2.70
2022-08-10T09:19:19.645Z,3.30
2022-08-10T09:25:08.971Z,3.10
2022-08-10T09:30:13.488Z,3.10
2022-08-10T09:36:26.579Z,3.60
2022-08-10T09:41:13.172Z,2.90
2022-08-10T09:46:33.363Z,3.40
2022-08-10T09:51:51.813Z,3.20
2022-08-10T09:57:44.166Z,2.90
2022-08-10T10:03:12.656Z,2.80
2022-08-10T10:08:42.224Z,3.60
2022-08-10T10:14:01.793Z,3.10
2022-08-10T10:19:30.275Z,3.00
2022-08-10T10:24:50.913Z,3.40
2022-08-10T10:30:06.569Z,3.00
2022-08-10T10:35:35.617Z,3.10
2022-08-10T10:40:55.218Z,2.90
2022-08-10T10:46:02.835Z,3.60
2022-08-10T10:51:42.392Z,3.10
2022-08-10T10:57:19.721Z,3.00
2022-08-10T11:02:57.384Z,3.40
2022-08-10T11:08:29.045Z,3.30
2022-08-10T11:14:27.365Z,2.80
2022-08-10T11:19:23.645Z,2.80
2022-08-10T11:24:50.658Z,2.80
2022-08-10T11:30:06.456Z,2.60
2022-08-10T11:35:23.808Z,2.60
2022-08-10T11:40:43.825Z,3.60
2022-08-10T11:45:55.576Z,3.10
2022-08-10T11:51:09.943Z,2.20
2022-08-10T11:56:27.905Z,2.70
2022-08-10T12:01:34.414Z,3.00
2022-08-10T12:06:54.796Z,2.90
2022-08-10T12:12:00.508Z,2.70
2022-08-10T12:17:07.639Z,2.90
2022-08-10T12:22:14.732Z,2.40
2022-08-10T12:27:21.364Z,2.40
2022-08-10T12:32:32.676Z,2.50
2022-08-10T12:37:53.367Z,3.10
2022-08-10T12:44:07.586Z,3.10
2022-08-10T12:49:22.783Z,2.40
2022-08-10T12:54:31.963Z,2.70
2022-08-10T12:59:43.212Z,2.80
2022-08-10T13:04:50.829Z,2.60
2022-08-10T13:09:55.683Z,3.20
2022-08-10T13:15:47.748Z,2.90
2022-08-10T13:20:34.379Z,2.80
2022-08-10T13:25:40.513Z,3.50
2022-08-10T13:30:50.631Z,2.50
2022-08-10T13:35:58.236Z,2.70
2022-08-10T13:41:25.505Z,3.10
2022-08-10T13:46:30.948Z,2.70
2022-08-10T13:51:56.473Z,2.50
2022-08-10T13:57:20.397Z,3.40
2022-08-10T14:02:48.379Z,3.40
2022-08-10T14:08:00.541Z,2.70
2022-08-10T14:13:05.415Z,3.20
2022-08-10T14:18:09.532Z,2.60
2022-08-10T14:23:13.504Z,4.80
2022-08-10T14:28:17.871Z,2.90
2022-08-10T14:33:23.521Z,2.90
2022-08-10T14:38:29.040Z,3.50
2022-08-10T14:43:42.561Z,3.70
2022-08-10T14:48:50.762Z,3.70
2022-08-10T14:53:58.676Z,2.30
2022-08-10T14:59:06.762Z,2.40
2022-08-10T15:04:13.318Z,2.70
2022-08-10T15:09:19.199Z,3.80
2022-08-10T15:14:43.071Z,2.60
2022-08-10T15:20:02.863Z,2.50
2022-08-10T15:25:19.007Z,2.60
2022-08-10T15:30:32.002Z,2.20
2022-08-10T15:35:53.510Z,2.50
2022-08-10T15:40:57.127Z,2.90
2022-08-10T15:46:20.483Z,2.20
2022-08-10T15:51:33.746Z,2.90
2022-08-10T15:57:10.954Z,5.60
2022-08-10T16:02:17.753Z,2.40
2022-08-10T16:07:46.213Z,1.80
2022-08-10T16:13:00.032Z,2.40
2022-08-10T16:18:13.451Z,4.20
2022-08-10T16:23:19.953Z,2.60
2022-08-10T16:28:30.363Z,2.90
2022-08-10T16:33:53.549Z,3.40
2022-08-10T16:38:58.877Z,1.90
2022-08-10T16:44:01.312Z,2.70
2022-08-10T16:49:03.526Z,1.80
2022-08-10T16:54:07.719Z,2.20
2022-08-10T16:59:10.734Z,2.40
2022-08-10T17:04:41.185Z,2.40
2022-08-10T17:09:49.640Z,2.20
2022-08-10T17:15:09.630Z,2.30
2022-08-10T17:20:31.909Z,2.70
2022-08-10T17:25:50.974Z,2.40
2022-08-10T17:30:58.121Z,3.60
2022-08-10T17:36:08.868Z,2.10
2022-08-10T17:41:13.753Z,2.70
2022-08-10T17:46:17.184Z,2.90
2022-08-10T17:51:19.389Z,2.40
2022-08-10T17:56:22.676Z,2.40
2022-08-10T18:01:41.775Z,3.10
2022-08-10T18:07:02.656Z,2.50
2022-08-10T18:12:18.483Z,2.80
2022-08-10T18:17:39.150Z,2.40
2022-08-10T18:22:48.099Z,2.00
2022-08-10T18:28:04.187Z,3.10
2022-08-10T18:33:10.771Z,3.10
2022-08-10T18:38:14.861Z,4.30
2022-08-10T18:44:06.956Z,4.30
2022-08-10T18:49:06.697Z,5.10
2022-08-10T18:54:39.778Z,5.40
2022-08-10T19:00:08.001Z,5.30
2022-08-10T19:05:31.359Z,6.20
2022-08-10T19:11:02.653Z,6.30
2022-08-10T19:16:07.397Z,5.50
2022-08-10T19:21:27.524Z,4.70
2022-08-10T19:26:45.800Z,4.90
2022-08-10T19:32:00.365Z,4.90
2022-08-10T19:37:20.954Z,3.40
2022-08-10T19:42:49.904Z,3.70
2022-08-10T19:48:00.754Z,4.00
2022-08-10T19:53:24.801Z,4.50
2022-08-10T19:58:47.923Z,4.60
2022-08-10T20:04:04.449Z,4.70
2022-08-10T20:09:36.030Z,6.30
2022-08-10T20:15:02.825Z,5.10
2022-08-10T20:20:31.016Z,6.40
2022-08-10T20:25:34.591Z,5.50
2022-08-10T20:30:41.894Z,5.20
2022-08-10T20:35:50.399Z,6.30
2022-08-10T20:41:19.660Z,5.40
2022-08-10T20:46:29.651Z,5.30
2022-08-10T20:51:59.510Z,5.20
2022-08-10T20:57:54.352Z,4.90
2022-08-10T21:03:06.677Z,5.60
2022-08-10T21:08:13.059Z,4.70
2022-08-10T21:13:33.185Z,5.30
2022-08-10T21:18:51.900Z,5.20
2022-08-10T21:24:24.054Z,5.20
2022-08-10T21:29:40.413Z,7.10
2022-08-10T21:35:20.122Z,6.70
2022-08-10T21:41:57.529Z,6.20
2022-08-10T21:47:41.929Z,6.10
2022-08-10T21:53:44.577Z,5.10
2022-08-10T21:59:20.937Z,6.80
2022-08-10T22:04:55.136Z,5.50
2022-08-10T22:10:17.643Z,6.00
2022-08-10T22:16:05.555Z,5.20
2022-08-10T22:21:49.742Z,6.10
2022-08-10T22:27:49.511Z,5.80
2022-08-10T22:33:29.224Z,5.30
2022-08-10T22:38:56.295Z,6.00
2022-08-10T22:44:21.302Z,5.60
2022-08-10T22:49:24.152Z,5.30
2022-08-10T22:54:56.872Z,5.50
2022-08-10T23:00:14.561Z,5.40
2022-08-10T23:05:18.741Z,6.40
2022-08-10T23:10:41.650Z,5.20
2022-08-10T23:16:14.722Z,5.10
2022-08-10T23:21:19.852Z,6.20
2022-08-10T23:26:27.224Z,5.70
2022-08-10T23:36:56.361Z,6.40
2022-08-10T23:42:07.232Z,7.10
2022-08-10T23:47:13.139Z,5.50
2022-08-10T23:52:27.680Z,6.60
2022-08-10T23:57:32.651Z,5.20
